Tiempo atmosférico en la estación meteorológica de Chinchilla, Albacete (880 m.)



Fecha
DESCASC
Temp. máxima en grados centígrados (hora)
DESCASC
Temp. mínima en grados centígrados (hora)
DESCASC
Temp. media en grados centígrados
DESCASC
Racha de viento máxima en m/sg (hora)
DESCASC
Velocidad máxima media en intervalos de 10 minutos(hora)
DESCASC
Precipitaciones diarias en mm
DESCASC
Precipitaciones de 00:00 a 06:00 en mm
DESCASC
Precipitaciones de 06:00 a 12:00 en mm
DESCASC
Precipitaciones de 12:00 a 18:00 en mm
DESCASC
Precipitaciones de 18:00 a 24:00 en mm
DESCASC
17-01-2021 7.3 (14:50) -1.2 (05:10) 3.1 8.61 (15:40) 5.83 (17:30) 0 0 0 0 0
16-01-2021 4.2 (14:20) -5.2 (08:10) -0.5 11.11 (02:20) 6.11 (03:20) 0 0 0 0 0
15-01-2021 2.9 (15:20) -3.5 (08:20) -0.3 10.28 (22:50) 7.22 (16:00) 0 0 0 0 0
14-01-2021 5 (16:10) -1.6 (23:40) 1.7 11.11 (12:20) 7.5 (12:20) 0 0 0 0 0
13-01-2021 3.5 (14:30) -4 (-00:0) -0.3 10.28 (14:00) 7.22 (13:20) 0 0 0 0 0
12-01-2021 0.1 (14:10) -8 (-00:0) -3.9 11.39 (21:30) 8.61 (18:10) -- -- -- -- 0
11-01-2021 1.7 (12:40) -5.8 (-00:0) -2.1 5.28 (16:40) 3.61 (19:30) -- -- -- -- --
10-01-2021 1.7 (14:20) -4.6 (06:20) -1.4 8.33 (03:20) 4.72 (03:10) -- -- -- -- --
09-01-2021 2.4 (16:20) -3.1 (-00:0) -0.3 14.44 (00:50) 10.28 (00:50) 12.4 2.4 2.2 7.7 0.1
08-01-2021 0.1 (16:30) -1.2 (-00:0) -0.6 13.89 (23:30) 9.72 (23:00) 13.3 0 0.5 9.9 2.9
07-01-2021 0.9 (12:30) -1.4 (-00:0) -0.3 9.72 (01:00) 6.11 (09:40) 7.6 0 1.7 5.7 0.2
06-01-2021 6.4 (14:30) -5.8 (-00:0) 0.3 9.17 (23:40) 6.39 (23:30) 0 0 0 0 0
05-01-2021 1.5 (16:30) -5.4 (-00:0) -2 7.22 (12:30) 5.28 (12:30) 0.3 0 0.3 0 0
04-01-2021 1.3 (14:00) -2.4 (-00:0) -0.6 11.67 (00:50) 7.78 (00:50) 0.2 0 0 0.1 0.1
03-01-2021 3.7 (16:30) -4.8 (-00:0) -0.6 12.22 (02:50) 7.78 (15:20) 0 0 0 0 0
02-01-2021 0.2 (15:10) -4.6 (-00:0) -2.2 13.89 (13:50) 8.33 (12:30) 1 0 0.6 0.4 0
01-01-2021 2.5 (15:40) -1.6 (-00:0) 0.4 14.17 (10:00) 8.89 (15:00) 3.1 1.8 1.3 0 0
31-12-2020 6.9 (16:10) -3.2 (-00:0) 1.9 11.11 (20:40) 7.5 (21:40) 1.2 0 0 0 1.2
30-12-2020 3.5 (16:10) -3.2 (-00:0) 0.1 10.28 (21:50) 6.11 (15:10) 0.3 0 0.3 0 0
29-12-2020 4 (13:40) -1.1 (-00:0) 1.4 13.33 (16:40) 7.78 (16:40) 1.7 0 0 1.1 0.6
28-12-2020 6.3 (14:40) -0.8 (-00:0) 2.8 19.44 (09:30) 13.89 (09:20) 1 0 1 0 0
27-12-2020 9.1 (15:30) -4.2 (-00:0) 2.5 13.61 (23:50) 8.89 (23:50) 0 0 0 0 0
26-12-2020 4.5 (15:30) -5.4 (-00:0) -0.5 9.17 (07:40) 5.56 (06:40) 0 0 0 0 0
25-12-2020 6.5 (00:00) -3 (-00:0) 1.8 10 (20:20) 5.83 (15:00) 0 0 0 0 0
24-12-2020 10.9 (15:10) 4.4 (00:00) 7.6 7.22 (11:00) 4.44 (10:50) 0 0 0 0 0
23-12-2020 12.1 (15:30) 5.8 (00:00) 9 9.17 (13:50) 6.39 (13:50) 0 0 0 0 0
22-12-2020 16.2 (16:30) 3.1 (00:00) 9.7 5.83 (00:40) 3.33 (01:50) 0.2 0 0.2 0 0
21-12-2020 9.8 (15:20) 1.7 (00:00) 5.8 9.17 (19:30) 6.67 (19:30) 0.1 0 0.1 0 0

Gráficas

Temp. máximas Temp. mínimas Temp. medias Precipitaciones Rachas de viento máximas Velocidades máximas media en intervalos de 10 minutos

Datos horarios

Fecha y hora oficial Temperatura (ºC) Velocidad del viento (km/h) Dirección del viento Racha (km/h) Dirección de racha Precipitación (mm) Presión (hPa) Tendencia (hPa) Humedad (%)
2021-01-19 23:00:00 2.4 0 Calma 7 Este 0 918 -1.7 61
2021-01-19 22:00:00 2.8 0 Calma -- -- 0 918.8 -1.1 60
2021-01-19 21:00:00 3.6 0 Calma -- -- 0 919.1 -- 55
2021-01-19 20:00:00 4.4 0 Calma -- -- 0 919.7 -- 52
2021-01-19 19:00:00 4.9 0 Calma 13 Nordeste 0 919.9 -- 48
2021-01-19 18:00:00 7.8 9 Norte 13 Norte 0 920.2 -- 36
2021-01-19 17:00:00 10 7 Norte 18 Norte 0 920.3 -- 33
2021-01-19 16:00:00 12.9 3 Noroeste 10 Noroeste 0 921.2 -- 29
2021-01-19 15:00:00 12.2 3 Noroeste 13 Noroeste 0 921.5 -- 28
2021-01-19 14:00:00 13.2 5 Oeste 13 Sudoeste 0 922.2 -- 29
2021-01-19 13:00:00 11.3 3 Noroeste 11 Sudoeste 0 923.2 -- 36
2021-01-19 12:00:00 10.1 4 Sudoeste 8 Sudoeste 0 923.9 -- 45
2021-01-19 11:00:00 7.1 0 Calma 5 Sur 0 923.2 -- 72
2021-01-19 10:00:00 2.4 0 Calma -- -- 0 922.4 -- 86
2021-01-19 09:00:00 1.2 0 Calma -- -- 0 922.2 -- 87
2021-01-19 08:00:00 0.4 0 Calma 5 Nordeste 0 922.1 -- 86
2021-01-19 07:00:00 0.9 0 Calma 6 Este 0 922.4 -- 84
2021-01-19 06:00:00 0.6 0 Calma 6 Sudeste 0 922.2 -- 80
2021-01-19 05:00:00 1.2 2 Sudeste 4 Nordeste 0 922.3 -- 76
2021-01-19 04:00:00 1.1 3 Nordeste 5 Nordeste 0 923 -- 74
2021-01-19 03:00:00 1.9 0 Calma 4 Nordeste 0 923.3 -- 74
2021-01-19 02:00:00 1.9 0 Calma -- -- 0 923.5 -- 74
2021-01-19 01:00:00 1.6 0 Calma 5 Sudeste 0 923.7 -- 74
2021-01-19 00:00:00 1.7 0 Calma 4 Nordeste 0 924 -- 73
2021-01-18 23:00:00 1.7 0 Calma -- -- 0 923.9 -- 74
2021-01-18 22:00:00 1.8 0 Calma 5 Norte 0 924.1 -- 71
2021-01-18 21:00:00 2.9 0 Calma 5 Norte 0 924.2 -- 66
2021-01-18 20:00:00 4.3 5 Norte 6 Norte 0 924.1 -- 59
2021-01-18 19:00:00 5.1 3 Norte 7 Nordeste 0 924.1 -- 55
2021-01-18 18:00:00 7.7 3 Norte 9 Norte 0 924 -- 49
2021-01-18 17:00:00 9 6 Norte 11 Norte 0 924.4 -- 45
2021-01-18 16:00:00 12.1 7 Oeste 12 Sudoeste 0 924.6 -- 42
2021-01-18 15:00:00 10.4 5 Noroeste 13 Sudoeste 0 924.7 -- 44
2021-01-18 14:00:00 11.2 9 Sudoeste 13 Oeste 0 925.2 -- 45
2021-01-18 13:00:00 10.3 8 Sudoeste 12 Sudoeste 0 925.7 -- 46
2021-01-18 12:00:00 8.1 3 Sudoeste 10 Sudeste 0 926.1 -- 48
2021-01-18 11:00:00 5.8 3 Sur 8 Sudeste 0 925.4 -- 53
2021-01-18 10:00:00 2.1 0 Calma 10 Norte 0 924.3 -- 58
2021-01-18 09:00:00 -0.7 0 Calma -- -- 0 923.6 -- 58
2021-01-18 08:00:00 -0.1 0 Calma 12 Norte 0 923.7 -- 55
2021-01-18 07:00:00 0.4 8 Norte 16 Norte 0 923.3 -- 57
2021-01-18 06:00:00 -0.8 3 Norte 11 Norte 0 923.1 -- 54
2021-01-18 05:00:00 0.4 10 Norte 12 Norte 0 923 -- 50
2021-01-18 04:00:00 -0.3 0 Calma 5 Nordeste 0 923.5 -- 50
2021-01-18 03:00:00 0 0 Calma 11 Norte 0 923.6 -- 48
2021-01-18 02:00:00 1.4 12 Norte 18 Norte 0 923.6 -- 45
2021-01-18 01:00:00 1.6 15 Norte 19 Norte 0 923.7 -- 46
2021-01-18 00:00:00 1.3 12 Norte 22 Norte 0 924.3 -- 46
2021-01-17 23:00:00 3 17 Norte 23 Norte 0 924.2 -- 47
2021-01-17 22:00:00 1.7 18 Norte 25 Norte 0 924.2 -- 46
2021-01-17 21:00:00 2.1 14 Norte 22 Norte 0 924.1 -- 47
2021-01-17 20:00:00 2.1 16 Norte 24 Norte 0 924.1 -- 48
2021-01-17 19:00:00 2.7 17 Norte 26 Norte 0 924.1 -- 42
2021-01-17 18:00:00 4.3 20 Norte 31 Noroeste 0 924.2 -- 34
2021-01-17 17:00:00 6.4 17 Norte 31 Noroeste 0 924.5 -- 30
2021-01-17 16:00:00 6.8 18 Noroeste 31 Noroeste 0 924.4 -- 29
2021-01-17 15:00:00 7 14 Norte 27 Norte 0 924.9 -- 29
2021-01-17 14:00:00 6.4 15 Norte 25 Norte 0 925.5 -- 31
2021-01-17 13:00:00 6.5 9 Noroeste 21 Noroeste 0 926.2 -- 34
2021-01-17 12:00:00 4.9 10 Norte 18 Noroeste 0 926.7 -- 35
2021-01-17 11:00:00 4 10 Norte 19 Norte 0 926.5 -- 38
2021-01-17 10:00:00 2.4 11 Norte 18 Norte 0 925.7 -- 42
2021-01-17 09:00:00 0.4 14 Norte 20 Norte 0 924.8 -- 45
2021-01-17 08:00:00 0.1 14 Norte 22 Norte 0 924.4 -- 46
2021-01-17 07:00:00 0.2 15 Norte 23 Norte 0 924.2 -- 46
2021-01-17 06:00:00 0.3 12 Norte 17 Norte 0 924.1 -- 47
2021-01-17 05:00:00 -1.1 5 Noroeste 10 Norte 0 924.5 -- 52
2021-01-17 04:00:00 -0.4 4 Noroeste 22 Nordeste 0 924.6 -- 50
2021-01-17 03:00:00 0.7 13 Norte 22 Norte 0 924.3 -- 49
2021-01-17 02:00:00 0.2 11 Norte 26 Norte 0 925.3 -- 51
2021-01-17 01:00:00 1 18 Norte 24 Norte 0 925.2 -- 50
2021-01-17 00:00:00 1.2 14 Norte 22 Norte 0 925.5 -- 52
2021-01-16 23:00:00 1 7 Noroeste 22 Nordeste 0 925.4 -- 52
2021-01-16 22:00:00 1.8 19 Norte 26 Norte 0 925.1 -- 50
2021-01-16 21:00:00 1.1 11 Norte 18 Nordeste 0 924.9 -- 52
2021-01-16 20:00:00 0.6 11 Norte 18 Norte 0 924.7 -- 55
2021-01-16 19:00:00 0.9 8 Norte 15 Norte 0 924.7 -- 55
2021-01-16 18:00:00 2.1 13 Norte 22 Norte 0 924.6 -- 48
2021-01-16 17:00:00 3.3 17 Norte 26 Norte 0 924.4 -- 45
2021-01-16 16:00:00 2.9 17 Norte 27 Norte 0 924.2 -- 46
2021-01-16 15:00:00 2.9 14 Norte 22 Norte 0 924.2 -- 46
2021-01-16 14:00:00 3.5 9 Norte 17 Norte 0 924 -- 46
2021-01-16 13:00:00 2.6 9 Noroeste 18 Noroeste 0 924.1 -- 51
2021-01-16 12:00:00 1.4 11 Norte 19 Norte 0 924.4 -- 55
2021-01-16 11:00:00 0.1 13 Norte 19 Norte 0 923.6 -- 62
2021-01-16 10:00:00 -1.7 9 Norte 19 Norte 0 922.4 -- 74
2021-01-16 09:00:00 -3.9 12 Norte 16 Norte 0 921 -- 82
2021-01-16 08:00:00 -5 0 Calma 15 Noroeste 0 920.8 -- 83
2021-01-16 07:00:00 -4.3 12 Norte 22 Norte 0 919.9 -- 83
2021-01-16 06:00:00 -3.5 10 Norte 23 Noroeste 0 919.8 -- 78
2021-01-16 05:00:00 -2.5 16 Noroeste 31 Noroeste 0 919.8 -- 77
2021-01-16 04:00:00 -2.1 18 Noroeste 39 Norte 0 919.7 -- 76
2021-01-16 03:00:00 -1.4 19 Noroeste 40 Noroeste 0 920 -- 74
2021-01-16 02:00:00 -0.9 21 Noroeste 35 Norte 0 920 -- 73
2021-01-16 01:00:00 -1.4 13 Noroeste 33 Norte 0 920.4 -- 74
2021-01-16 00:00:00 -1.3 19 Norte 37 Norte 0 920.5 -- 75
2021-01-15 23:00:00 -2 19 Norte 37 Noroeste 0 920.5 -- 78
2021-01-15 22:00:00 -1.3 21 Norte 35 Norte 0 920.6 -- 75
2021-01-15 21:00:00 -0.4 18 Norte 32 Noroeste 0 921.3 -- 70
2021-01-15 20:00:00 0.2 18 Noroeste 32 Noroeste 0 921.6 -- 67
2021-01-15 19:00:00 0.6 19 Noroeste 31 Norte 0 921.6 -- 67
2021-01-15 18:00:00 1.2 19 Noroeste 35 Norte 0 921.4 -- 65
2021-01-15 17:00:00 2.1 21 Norte 37 Norte 0 921.5 -- 62
2021-01-15 16:00:00 2.2 26 Norte 36 Noroeste 0 921.1 -- 61
2021-01-15 15:00:00 2.2 15 Noroeste 30 Noroeste 0 921.5 -- 63
2021-01-15 14:00:00 1.4 16 Noroeste 28 Noroeste 0 921.7 -- 66
2021-01-15 13:00:00 1.5 9 Noroeste 27 Norte 0 922.4 -- 69
2021-01-15 12:00:00 0 15 Noroeste 32 Noroeste 0 922.8 -- 74
2021-01-15 11:00:00 -0.8 15 Noroeste 33 Noroeste 0 922.4 -- 80
2021-01-15 10:00:00 -1.9 12 Noroeste 27 Noroeste 0 921.9 -- 87
2021-01-15 09:00:00 -3.1 12 Norte 26 Norte 0 920.9 -- 89
2021-01-15 08:00:00 -3.2 11 Norte 24 Norte 0 920.9 -- 87
2021-01-15 07:00:00 -2.9 15 Norte 23 Noroeste 0 920.4 -- 86
2021-01-15 06:00:00 -2.9 11 Norte 26 Norte 0 920.5 -- 82
2021-01-15 05:00:00 -2.9 20 Norte 25 Norte 0 920.5 -- 77
2021-01-15 04:00:00 -2.8 14 Norte 22 Norte 0 920.9 -- 71
2021-01-15 03:00:00 -2.4 17 Norte 22 Norte 0 921.2 -- 64
2021-01-15 02:00:00 -1.6 17 Norte 26 Norte 0 921.1 -- 59
2021-01-15 01:00:00 -1.8 17 Norte 24 Norte 0 921.5 -- 59
2021-01-15 00:00:00 -1.6 18 Norte 30 Norte 0 921.4 -- 57
2021-01-14 23:00:00 -1.2 22 Norte 29 Norte 0 921.5 -- 55
2021-01-14 22:00:00 -0.1 21 Norte 35 Norte 0 921.2 -- 53
2021-01-14 21:00:00 1.7 20 Norte 30 Norte 0 921.4 -- 50
2021-01-14 20:00:00 1.3 11 Norte 30 Noroeste 0 921.1 -- 52
2021-01-14 19:00:00 1.8 17 Norte 35 Norte 0 921.1 -- 54
2021-01-14 18:00:00 2.1 24 Norte 35 Norte 0 921.1 -- 53
2021-01-14 17:00:00 3.4 22 Norte 31 Norte 0 921.4 -- 45
2021-01-14 16:00:00 4.9 22 Norte 38 Norte 0 921.2 -- 38
2021-01-14 15:00:00 4.3 24 Norte 37 Noroeste 0 920.7 -- 39
2021-01-14 14:00:00 3.8 23 Norte 37 Norte 0 921 -- 41
2021-01-14 13:00:00 3.3 23 Norte 40 Norte 0 921.8 -- 44
2021-01-14 12:00:00 2.9 23 Norte 36 Noroeste 0 922.4 -- 45
2021-01-14 11:00:00 2.1 21 Norte 32 Norte 0 922.4 -- 45
2021-01-14 10:00:00 0.8 21 Norte 32 Norte 0 921.9 -- 50
2021-01-14 09:00:00 -0.3 23 Norte 32 Norte 0 921.4 -- 52
2021-01-14 08:00:00 -0.6 23 Norte 33 Norte 0 921.1 -- 52
2021-01-14 07:00:00 -0.3 24 Norte 35 Norte 0 921.2 -- 50
2021-01-14 06:00:00 -0.7 21 Norte 33 Norte 0 921.3 -- 49
2021-01-14 05:00:00 -0.2 19 Norte 30 Noroeste 0 921.6 -- 47
2021-01-14 04:00:00 0 18 Norte 29 Norte 0 922.2 -- 47
2021-01-14 03:00:00 -0.3 15 Norte 21 Norte 0 922.5 -- 50
2021-01-14 02:00:00 0.3 13 Norte 22 Norte 0 922.7 -- 49
2021-01-14 01:00:00 -0.1 12 Norte 22 Norte 0 923.2 -- 52
2021-01-14 00:00:00 -0.3 17 Norte 20 Norte 0 923.6 -- 52
2021-01-13 23:00:00 0.6 13 Norte 20 Noroeste 0 924.1 -- 50
2021-01-13 22:00:00 0.4 12 Norte 22 Noroeste 0 923.8 -- 55
2021-01-13 21:00:00 0.5 13 Norte 28 Norte 0 923.6 -- 56
2021-01-13 20:00:00 1 19 Norte 26 Norte 0 923.2 -- 55
2021-01-13 19:00:00 0 10 Norte 27 Norte 0 923.4 -- 58
2021-01-13 18:00:00 1.1 16 Norte 28 Norte 0 923.5 -- 51
2021-01-13 17:00:00 2.9 7 Norte 25 Noroeste 0 923.7 -- 45
2021-01-13 16:00:00 2.9 17 Norte 32 Noroeste 0 923.8 -- 43
2021-01-13 15:00:00 2.9 19 Norte 32 Noroeste 0 923.3 -- 43
2021-01-13 14:00:00 3 22 Norte -- -- -- 923.6 -- 42
2021-01-13 13:00:00 1.2 22 Norte 33 Noroeste 0 924.3 -- 48
2021-01-13 12:00:00 1.9 9 Noroeste 32 Noroeste 0 925 -- 45
2021-01-13 11:00:00 0 19 Norte 29 Norte 0 924.4 -- 49
2021-01-13 10:00:00 -1.4 17 Noroeste 33 Noroeste 0 923.8 -- 54
2021-01-13 09:00:00 -3.3 17 Norte 24 Norte 0 923 -- 62
2021-01-13 08:00:00 -3.7 12 Norte 26 Norte 0 922.8 -- 65
2021-01-13 07:00:00 -3.7 21 Norte 31 Norte 0 922.4 -- 64
2021-01-13 06:00:00 -3.5 16 Norte 23 Norte 0 922.3 -- 64
2021-01-13 05:00:00 -3.3 17 Norte 27 Norte 0 922.7 -- 62
2021-01-13 04:00:00 -3.4 19 Norte 32 Norte 0 923 -- 64
2021-01-13 03:00:00 -3.1 22 Norte 33 Norte 0 923.1 -- 61
2021-01-13 02:00:00 -3.5 17 Norte 31 Noroeste 0 923.2 -- 64
2021-01-13 01:00:00 -3 20 Norte 35 Noroeste 0 923.7 -- 61
2021-01-13 00:00:00 -2.9 18 Norte 28 Noroeste 0 924 -- 59
2021-01-12 23:00:00 -3 17 Norte 29 Noroeste 0 924 -- 60
2021-01-12 22:00:00 -2.6 19 Norte 41 Noroeste 0 923.7 -- 65
2021-01-12 21:00:00 -2.5 24 Norte 39 Noroeste 0 923.2 -- 71
2021-01-12 20:00:00 -2 27 Norte 37 Norte 0 923.6 -- 64
2021-01-12 19:00:00 -1.6 27 Norte 40 Norte 0 923.4 -- 54
2021-01-12 18:00:00 -1.4 29 Norte 38 Noroeste 0 922.6 -- 54
2021-01-12 17:00:00 -0.9 15 Norte 36 Noroeste 0 923.1 -- 52
2021-01-12 16:00:00 -0.7 22 Noroeste 38 Norte 0 922.9 -- 48
2021-01-12 15:00:00 -0.7 25 Norte 37 Noroeste 0 922.5 -- 47
2021-01-12 14:00:00 -1.6 21 Norte 32 Noroeste 0 922.9 -- 46
2021-01-12 13:00:00 -2.9 17 Norte 28 Norte -- 923 -- 50
2021-01-12 12:00:00 -3.1 13 Noroeste 29 Noroeste -- 923.7 -- 54
2021-01-12 11:00:00 -4.1 13 Norte -- -- -- 923.1 -- 70
2021-01-12 10:00:00 -5.8 10 Norte 22 Norte -- 922 -- 81
2021-01-12 09:00:00 -7.7 13 Norte 21 Nordeste -- 921 -- 84
2021-01-12 08:00:00 -7.5 10 Norte 21 Norte -- 920.6 -- 85
2021-01-12 07:00:00 -7.6 11 Norte 21 Norte -- 920.1 -- 86
2021-01-12 06:00:00 -7.4 12 Norte 24 Norte -- 919.6 -- 86
2021-01-12 05:00:00 -6.7 12 Norte 22 Norte -- 919.4 -- 85
2021-01-12 04:00:00 -6.6 9 Norte 14 Norte -- 919.8 -- 85
2021-01-12 03:00:00 -6.6 8 Norte 13 Norte -- 919.7 -- 85
2021-01-12 02:00:00 -6.7 9 Norte 14 Norte -- 919.3 -- 88
2021-01-12 01:00:00 -6.5 9 Norte 14 Norte -- 919.3 -- 91
2021-01-12 00:00:00 -5.8 12 Norte 17 Norte -- 919.1 -- 91
2021-01-11 23:00:00 -5.5 10 Norte 15 Norte -- 918.7 -- 91
2021-01-11 22:00:00 -5.6 12 Norte 15 Norte -- 918.3 -- 90
2021-01-11 21:00:00 -5.4 8 Norte 15 Norte -- 917.8 -- 88
2021-01-11 20:00:00 -5 11 Norte 18 Norte -- 917.5 -- 85
2021-01-11 19:00:00 -4.2 6 Norte 14 Norte -- 917 -- 82
2021-01-11 18:00:00 -2 4 Norte 12 Norte -- 917.5 -- 69
2021-01-11 17:00:00 0 11 Norte 19 Norte -- 916.8 -- 56
2021-01-11 16:00:00 0.6 12 Norte 16 Norte -- 916.5 -- 61
2021-01-11 15:00:00 0.8 4 Sur 10 Sudoeste -- 916 -- 70
2021-01-11 14:00:00 -0.1 6 Sudoeste 12 Sur -- 915.8 -- 78
2021-01-11 13:00:00 1.1 5 Sur 13 Sudoeste -- 916.1 -- 80
2021-01-11 12:00:00 -0.4 6 Norte 14 Norte 0 916.1 -- 93
2021-01-11 11:00:00 -0.8 4 Norte 11 Norte 0 915.8 -- 93
2021-01-11 10:00:00 -2.5 0 Calma -- -- 0 914.3 -- 93
2021-01-11 09:00:00 -2.9 0 Calma 5 Norte 0 913.6 -- 92
2021-01-11 08:00:00 -2.3 0 Calma 4 Norte 0 913.2 -- 92
2021-01-11 07:00:00 -1.4 0 Calma 11 Noroeste 0 912.8 -- 92
2021-01-11 06:00:00 -1.4 0 Calma 7 Sur 0 912.4 -- 92
2021-01-11 05:00:00 -1.3 0 Calma 8 Norte 0 912.3 -- 92
2021-01-11 04:00:00 -1.9 4 Oeste 9 Sur 0 912.4 -- 92
2021-01-11 03:00:00 -1.5 0 Calma 9 Nordeste 0 912.3 -- 92
2021-01-11 02:00:00 -1.6 0 Calma -- -- 0 912 -- 92
2021-01-11 01:00:00 -1.3 0 Calma 7 Sur 0 912 -- 92
2021-01-11 00:00:00 -0.6 0 Calma 8 Nordeste 0 912.1 -- 92
2021-01-10 23:00:00 -0.9 4 Norte 9 Norte 0 911.8 -- 92
2021-01-10 22:00:00 -1.6 0 Calma 8 Este 0 911.4 -- 91
2021-01-10 21:00:00 -1.6 4 Sudeste 8 Este 0 910.8 -- 90
2021-01-10 20:00:00 -1.8 0 Calma -- -- 0 910.3 -- 90
2021-01-10 19:00:00 -1.3 0 Calma 4 Sur 0 909.8 -- 89
2021-01-10 18:00:00 -0.5 3 Este 10 Nordeste 0 909.5 -- 88
2021-01-10 17:00:00 -0.5 0 Calma 10 Este 0.2 908.8 -- 86
2021-01-10 16:00:00 0.3 0 Calma 8 Sudoeste 0.1 908.6 -- 85
2021-01-10 15:00:00 1.6 4 Sudeste 10 Este 0.8 908 -- 87
2021-01-10 14:00:00 0.7 6 Nordeste 13 Nordeste 1.8 907.4 -- 89
2021-01-10 13:00:00 -0.2 5 Nordeste 12 Nordeste 1.6 907.7 -- 90
2021-01-10 12:00:00 -0.5 0 Calma -- -- 0.3 907.6 -- 91
2021-01-10 11:00:00 -1.8 0 Calma 6 Este 0 907 -- 91
2021-01-10 10:00:00 -3.6 0 Calma 7 Sudoeste 0 905.5 -- 90
2021-01-10 09:00:00 -4.5 5 Sudoeste 9 Sudoeste 0 904.7 -- 90
2021-01-10 08:00:00 -4.5 3 Sur 22 Sudoeste 0 903.9 -- 87
2021-01-10 07:00:00 -3.6 2 Sudoeste 8 Sur 0 903.2 -- 87
2021-01-10 06:00:00 -4 3 Este 6 Sur 0 903.2 -- 85
2021-01-10 05:00:00 -3.4 0 Calma 24 Nordeste 0 903.4 -- 82
2021-01-10 04:00:00 -2 15 Nordeste 30 Nordeste 0 903.3 -- 81
2021-01-10 03:00:00 -2.2 16 Nordeste 27 Nordeste 0 903.1 -- 87
2021-01-10 02:00:00 -2.5 3 Nordeste 21 Nordeste 0 903.3 -- 87
2021-01-10 01:00:00 -2.6 5 Nordeste 13 Nordeste 0 903.1 -- 87
2021-01-10 00:00:00 -2.8 3 Este 11 Este 0 903.5 -- 87
2021-01-09 23:00:00 -2.8 0 Calma 11 Norte 0 903.9 -- 87
2021-01-09 22:00:00 -2.5 0 Calma 9 Nordeste 0 903.5 -- 87
2021-01-09 21:00:00 -1.7 7 Norte 13 Norte 0 903.5 -- 87
2021-01-09 20:00:00 -1.3 10 Norte 14 Norte 0 903.2 -- 89
2021-01-09 19:00:00 -0.2 6 Noroeste 11 Noroeste 0.1 903.2 -- 89
2021-01-09 18:00:00 0.3 5 Norte 15 Noroeste 0.3 902.9 -- 90
2021-01-09 17:00:00 1.6 5 Noroeste 13 Norte 1.1 902.3 -- 93
2021-01-09 16:00:00 2.1 0 Calma 14 Sudeste 1.6 901.7 -- 93
2021-01-09 15:00:00 1 11 Sudeste 16 Sudeste 1.9 901.2 -- 93
2021-01-09 14:00:00 0.6 12 Sudeste 22 Sudeste 1.3 900.5 -- 93
2021-01-09 13:00:00 -0.1 17 Sudeste 28 Sudeste 1.5 900.6 -- 93
2021-01-09 12:00:00 -0.2 19 Este 32 Sudeste 0.8 901 -- 93
2021-01-09 11:00:00 -0.6 24 Este 35 Sudeste 0.6 901 -- 93
2021-01-09 10:00:00 -0.9 15 Este 32 Sudeste 0.3 900.6 -- 93
2021-01-09 09:00:00 -1.2 21 Sudeste 35 Este 0.1 900 -- 93
2021-01-09 08:00:00 -1.1 23 Este 41 Sudeste 0.2 899.6 -- 93
2021-01-09 07:00:00 -1 24 Sudeste 35 Sudeste 0.2 899.8 -- 93
2021-01-09 06:00:00 -1 15 Sudeste 36 Este 0.1 900.1 -- 93
2021-01-09 05:00:00 -1 29 Este 42 Este 0.1 899.5 -- 93
2021-01-09 04:00:00 -1.1 20 Sudeste 31 Este 0.1 900.4 -- 93
2021-01-09 03:00:00 -1 17 Sudeste 32 Sudeste 0.2 900.9 -- 93
2021-01-09 02:00:00 -0.7 16 Sudeste 50 Sudeste 1 900.7 -- 93
2021-01-09 01:00:00 -0.7 37 Sudeste 52 Sudeste 0.9 899.9 -- 93
2021-01-09 00:00:00 -0.8 27 Sudeste 50 Sudeste 0.5 900.5 -- 93
2021-01-08 23:00:00 -0.5 35 Sudeste 48 Este 0.6 901 -- 93
2021-01-08 22:00:00 -0.5 24 Sudeste 46 Este 0.6 902.4 -- 93
2021-01-08 21:00:00 -0.6 31 Sudeste 49 Sudeste 0.4 902.3 -- 93
2021-01-08 20:00:00 -0.6 30 Sudeste 44 Sudeste 0.5 902.5 -- 93
2021-01-08 19:00:00 -0.7 23 Sudeste 41 Sudeste 0.3 902.7 -- 93
2021-01-08 18:00:00 -0.8 16 Sudeste 24 Sudeste 0.3 903.1 -- 93
2021-01-08 17:00:00 -0.8 20 Sudeste 29 Sudeste 0.9 903.7 -- 92
2021-01-08 16:00:00 -0.5 18 Sudeste 30 Sudeste 1.7 903.8 -- 92
2021-01-08 15:00:00 -0.3 17 Sudeste 24 Sudeste 2.5 904 -- 92
2021-01-08 14:00:00 -0.1 15 Sudeste 22 Sudeste 2.8 904.6 -- 92
2021-01-08 13:00:00 -0.2 17 Sudeste 26 Sudeste 1.7 905.4 -- 93
2021-01-08 12:00:00 -0.3 14 Sudeste 21 Sudeste 0.4 906.3 -- 93
2021-01-08 11:00:00 -0.6 16 Sudeste 27 Sudeste 0.1 907 -- 93
2021-01-08 10:00:00 -0.7 17 Sudeste 31 Sudeste 0 906.3 -- 93
2021-01-08 09:00:00 -1 18 Sudeste 31 Este 0 905.8 -- 93
2021-01-08 08:00:00 -1 19 Este 27 Este 0 906 -- 93
2021-01-08 07:00:00 -1 12 Sudeste 20 Este 0 906.1 -- 93
2021-01-08 06:00:00 -0.9 11 Sudeste 18 Este 0 906 -- 93
2021-01-08 05:00:00 -1 15 Este 23 Este 0 906.5 -- 93
2021-01-08 04:00:00 -1.1 0 Calma -- -- 0 906.6 -- 93
2021-01-08 03:00:00 -1.2 0 Calma -- -- 0 906.6 -- 93
2021-01-08 02:00:00 -1.2 0 Calma -- -- 0 906.6 -- 93
2021-01-08 01:00:00 -1.1 0 Calma -- -- 0 906.7 -- 92
2021-01-08 00:00:00 -1.2 0 Calma -- -- 0 907 -- 92
2021-01-07 23:00:00 -1.1 0 Calma -- -- 0 907.4 -- 92
2021-01-07 22:00:00 -1.2 0 Calma -- -- 0 907.4 -- 92
2021-01-07 21:00:00 -1.3 0 Calma -- -- 0 907.7 -- 92
2021-01-07 20:00:00 -1.3 0 Calma -- -- 0.1 907.8 -- 92
2021-01-07 19:00:00 -1.2 0 Calma 15 Nordeste 0.1 907.6 -- 91
2021-01-07 18:00:00 -0.8 4 Nordeste 13 Nordeste 0.1 907.9 -- 91
2021-01-07 17:00:00 -0.6 6 Sudeste 15 Sudeste 0.6 907.3 -- 91
2021-01-07 16:00:00 -0.3 6 Este 13 Sudeste 0.7 906.9 -- 90
2021-01-07 15:00:00 -0.4 9 Sudeste 19 Sudeste 0.9 906.6 -- 90
2021-01-07 14:00:00 -0.1 14 Sudeste 21 Sudeste 1.5 906.2 -- 90
2021-01-07 13:00:00 0.3 12 Sudeste 21 Este 1.9 906.8 -- 90
2021-01-07 12:00:00 0.5 14 Este 24 Sudeste 1.7 907.3 -- 91
2021-01-07 11:00:00 -0.1 12 Este 26 Este 0 907.7 -- 91
2021-01-07 10:00:00 -0.6 16 Este 34 Este 0 906.9 -- 91
2021-01-07 09:00:00 -0.7 17 Este 27 Este 0 906.5 -- 91
2021-01-07 08:00:00 -0.8 12 Este 22 Este 0 906.4 -- 91
2021-01-07 07:00:00 -0.8 9 Este 24 Este 0 906.4 -- 91
2021-01-07 06:00:00 -0.8 15 Este 22 Sudeste 0 906.4 -- 91
2021-01-07 05:00:00 -0.8 10 Este 20 Este 0 906 -- 91
2021-01-07 04:00:00 -1 10 Este 20 Este 0 906.8 -- 90
2021-01-07 03:00:00 -1.1 14 Este 20 Este 0 907.4 -- 90
2021-01-07 02:00:00 -1.4 15 Este 31 Este 0 907.7 -- 89
2021-01-07 01:00:00 -1.2 21 Este 35 Este 0 908.2 -- 87
2021-01-07 00:00:00 -0.5 17 Sudeste 33 Sudeste 0 908.6 -- 78
2021-01-06 23:00:00 0.1 17 Sudeste 28 Sudeste 0 908.7 -- 70
2021-01-06 22:00:00 0 17 Sudeste 22 Sudeste 0 909 -- 62
2021-01-06 21:00:00 0.1 16 Sudeste 20 Este 0 909.8 -- 61
2021-01-06 20:00:00 0.9 12 Sudeste 15 Sudeste 0 910 -- 57
2021-01-06 19:00:00 1.2 9 Sudeste 12 Sudeste 0 909.7 -- 55
2021-01-06 18:00:00 1.9 8 Sudeste 13 Sur 0 909.4 -- 52
2021-01-06 17:00:00 3.4 9 Sur 16 Sur 0 909.5 -- 43
2021-01-06 16:00:00 4.5 13 Sur 18 Sur 0 909.9 -- 38
2021-01-06 15:00:00 4.6 12 Sudeste 20 Sudeste 0 910.1 -- 39
2021-01-06 14:00:00 4.9 9 Sur 17 Este 0 910.3 -- 42
2021-01-06 13:00:00 3.5 10 Sudeste 16 Sudeste 0 910.3 -- 48
2021-01-06 12:00:00 2 8 Sudeste 14 Este 0 910.8 -- 58
2021-01-06 11:00:00 0.9 12 Este 15 Este 0 910.4 -- 64
2021-01-06 10:00:00 0 11 Sudeste 19 Este 0 909.6 -- 65
2021-01-06 09:00:00 -3.6 11 Este 18 Este 0 908.4 -- 72
2021-01-06 08:00:00 -5 7 Este 15 Este 0 907.7 -- 71
2021-01-06 07:00:00 -5.7 6 Este 12 Este 0 907.1 -- 67
2021-01-06 06:00:00 -3.7 9 Este 14 Este 0 906.8 -- 64
2021-01-06 05:00:00 -5.8 6 Este 13 Este 0 906.5 -- 65
2021-01-06 04:00:00 -3.6 9 Este 17 Este 0 907.1 -- 61
2021-01-06 03:00:00 -4.6 8 Este 15 Este 0 907.1 -- 64
2021-01-06 02:00:00 -4.5 3 Este 10 Este 0 906.9 -- 65
2021-01-06 01:00:00 -5 4 Nordeste 9 Nordeste 0 906.8 -- 72
2021-01-06 00:00:00 -4.6 0 Calma 7 Sudeste 0 907.4 -- 72
2021-01-05 23:00:00 -5 5 Sudeste 11 Nordeste 0 907.6 -- 68
2021-01-05 22:00:00 -3.9 2 Norte 10 Este 0 907.4 -- 65
2021-01-05 21:00:00 -3.4 0 Calma 8 Este 0 907.6 -- 63
2021-01-05 20:00:00 -2.9 4 Noroeste 17 Norte 0 907.6 -- 69
2021-01-05 19:00:00 -2.6 10 Norte 13 Norte 0 907.3 -- 68
2021-01-05 18:00:00 -1.9 6 Norte 12 Norte 0 907.5 -- 67
2021-01-05 17:00:00 0.5 8 Norte 12 Norte 0 908 -- 59
2021-01-05 16:00:00 0.8 6 Noroeste 14 Noroeste 0 907.7 -- 68
2021-01-05 15:00:00 0 9 Norte 17 Norte 0 907.3 -- 73
2021-01-05 14:00:00 -1.2 9 Norte 26 Norte 0 907.4 -- 82
2021-01-05 13:00:00 -1.3 15 Norte 26 Norte 0 907.9 -- 78
2021-01-05 12:00:00 -1.4 15 Norte 23 Noroeste 0 908.6 -- 79
2021-01-05 11:00:00 -1.7 6 Norte 12 Norte 0.2 909 -- 88
2021-01-05 10:00:00 -3.3 4 Norte 10 Norte 0.1 908.4 -- 93
2021-01-05 09:00:00 -5.2 6 Norte 16 Norte 0 907.4 -- 93
2021-01-05 08:00:00 -5 9 Norte 15 Norte 0 907.2 -- 93
2021-01-05 07:00:00 -4.4 3 Noroeste 10 Noroeste 0 906.9 -- 93
2021-01-05 06:00:00 -4.3 6 Norte 22 Norte 0 906.5 -- 93
2021-01-05 05:00:00 -3.6 18 Norte 25 Norte 0 906.5 -- 92
2021-01-05 04:00:00 -3.2 14 Noroeste 19 Norte 0 907.2 -- 92
2021-01-05 03:00:00 -3.2 8 Noroeste 17 Noroeste 0 907.5 -- 91
2021-01-05 02:00:00 -3 12 Norte 23 Noroeste 0 907.3 -- 89
2021-01-05 01:00:00 -2.3 15 Noroeste 23 Noroeste 0 907.6 -- 89
2021-01-05 00:00:00 -2.1 15 Noroeste 26 Noroeste 0 907.9 -- 90
2021-01-04 23:00:00 -2 15 Noroeste 24 Noroeste 0 908 -- 90
2021-01-04 22:00:00 -2.2 11 Noroeste 22 Noroeste 0 907.9 -- 89
2021-01-04 21:00:00 -1.8 17 Noroeste 22 Noroeste 0 907.5 -- 89
2021-01-04 20:00:00 -1.7 12 Oeste 23 Noroeste 0 907.5 -- 89
2021-01-04 19:00:00 -0.8 13 Noroeste 23 Noroeste 0.1 907.5 -- 88
2021-01-04 18:00:00 -0.5 14 Noroeste 23 Noroeste 0.1 907.5 -- 89
2021-01-04 17:00:00 -0.9 9 Noroeste 24 Noroeste 0 907.5 -- 90
2021-01-04 16:00:00 -0.6 18 Noroeste 31 Noroeste 0 907.5 -- 83
2021-01-04 15:00:00 0.6 14 Noroeste 31 Noroeste 0 907.4 -- 74
2021-01-04 14:00:00 1.1 18 Noroeste 33 Noroeste 0 907.4 -- 71
2021-01-04 13:00:00 0.6 14 Oeste 30 Noroeste 0 908.4 -- 73
2021-01-04 12:00:00 0.7 19 Noroeste 31 Noroeste 0 909 -- 75
2021-01-04 11:00:00 -0.2 16 Oeste 28 Noroeste 0 909.2 -- 79
2021-01-04 10:00:00 -1.3 17 Noroeste 27 Noroeste 0 909 -- 81
2021-01-04 09:00:00 -2.1 18 Noroeste 27 Noroeste 0 908.6 -- 84
2021-01-04 08:00:00 -2.1 16 Noroeste 26 Noroeste 0 908.7 -- 81
2021-01-04 07:00:00 -1.8 15 Noroeste 24 Noroeste 0 908.7 -- 81
2021-01-04 06:00:00 -1.3 15 Noroeste 27 Noroeste 0 908.8 -- 78
2021-01-04 05:00:00 -1 14 Oeste 27 Noroeste 0 909 -- 77
2021-01-04 04:00:00 -0.8 15 Oeste 27 Oeste 0 909.5 -- 75
2021-01-04 03:00:00 -0.6 17 Oeste 32 Oeste 0 909.7 -- 74
2021-01-04 02:00:00 -1 21 Noroeste 38 Oeste 0 909.7 -- 74
2021-01-04 01:00:00 -0.8 27 Noroeste 42 Noroeste 0 909.9 -- 70
2021-01-04 00:00:00 -1.2 15 Noroeste 32 Oeste 0 910.3 -- 69
2021-01-03 23:00:00 -1.4 19 Noroeste 36 Noroeste 0 910.6 -- 65
2021-01-03 22:00:00 -1.3 19 Noroeste 31 Noroeste 0 910.8 -- 59
2021-01-03 21:00:00 -1.1 14 Noroeste 24 Noroeste 0 910.9 -- 55
2021-01-03 20:00:00 -0.5 14 Noroeste 23 Noroeste 0 911 -- 56
2021-01-03 19:00:00 0.2 15 Noroeste 24 Noroeste 0 910.8 -- 53
2021-01-03 18:00:00 0.7 14 Noroeste 29 Noroeste 0 910.9 -- 52
2021-01-03 17:00:00 2.2 16 Noroeste 40 Noroeste 0 911.1 -- 51
2021-01-03 16:00:00 2.5 26 Noroeste 42 Noroeste 0 911.1 -- 50
2021-01-03 15:00:00 2.2 27 Noroeste 42 Noroeste 0 911.2 -- 54
2021-01-03 14:00:00 1.6 26 Noroeste 43 Noroeste 0 911.1 -- 54
2021-01-03 13:00:00 0.8 22 Noroeste 39 Noroeste 0 911.5 -- 58
2021-01-03 12:00:00 0.2 19 Noroeste 36 Noroeste 0 911.6 -- 63
2021-01-03 11:00:00 -1.5 21 Norte 33 Norte 0 911.4 -- 68
2021-01-03 10:00:00 -3 14 Noroeste 23 Noroeste 0 910.8 -- 73
2021-01-03 09:00:00 -4.5 14 Noroeste 29 Noroeste 0 910.2 -- 76
2021-01-03 08:00:00 -4.1 20 Norte 30 Noroeste 0 909.9 -- 73
2021-01-03 07:00:00 -4.6 14 Noroeste 29 Norte 0 909.2 -- 73
2021-01-03 06:00:00 -4.4 14 Noroeste 33 Noroeste 0 908.9 -- 71
2021-01-03 05:00:00 -4.2 22 Noroeste 40 Noroeste 0 908.6 -- 71
2021-01-03 04:00:00 -4.3 20 Noroeste 40 Noroeste 0 908.9 -- 72
2021-01-03 03:00:00 -4.4 23 Noroeste 44 Norte 0 908.5 -- 77
2021-01-03 02:00:00 -4.4 15 Noroeste 29 Noroeste 0 908.6 -- 80
2021-01-03 01:00:00 -3.9 13 Noroeste 25 Noroeste 0 909.1 -- 77
2021-01-03 00:00:00 -3.4 12 Noroeste 28 Noroeste 0 909.3 -- 75
2021-01-02 23:00:00 -2.9 15 Noroeste 32 Norte 0 908.9 -- 72
2021-01-02 22:00:00 -2.5 19 Norte 37 Norte 0 909 -- 71
2021-01-02 21:00:00 -1.8 17 Noroeste 35 Noroeste 0 908.8 -- 70
2021-01-02 20:00:00 -1.6 16 Noroeste 31 Norte 0 908.7 -- 74
2021-01-02 19:00:00 -0.9 14 Noroeste 33 Noroeste 0 908.6 -- 70
2021-01-02 18:00:00 -0.6 18 Noroeste 37 Noroeste 0 908.2 -- 68
2021-01-02 17:00:00 -0.5 17 Noroeste 37 Noroeste 0 908 -- 66
2021-01-02 16:00:00 -0.4 22 Noroeste 40 Noroeste 0 907.6 -- 62
2021-01-02 15:00:00 -0.4 20 Norte 50 Noroeste 0 907.4 -- 58
2021-01-02 14:00:00 -0.7 28 Noroeste 50 Noroeste 0 907.4 -- 61